Time;durP1;ratioP1;P1;durP2;ratioP2;P2;SDS_P1;SDS_P2;PMS_P1;PMS_P2;Temp;Humidity;BMP_temperature;BMP_pressure;BME280_temperature;BME280_humidity;BME280_pressure;Samples;Min_cycle;Max_cycle;Signal;HPM_P1;HPM_P2
2021/10/12 00:01:20;;;;;;;22.90;16.30;;;10.60;99.90;;;;;;5028694;28;20124;-51
2021/10/12 00:03:46;;;;;;;18.65;13.98;;;10.60;99.90;;;;;;5045483;28;20025;-50
2021/10/12 00:06:12;;;;;;;20.35;14.82;;;10.50;99.90;;;;;;5041248;28;20052;-51
2021/10/12 00:08:41;;;;;;;19.52;14.68;;;10.60;99.90;;;;;;5050427;28;20021;-50
2021/10/12 00:11:06;;;;;;;18.35;15.85;;;10.60;99.90;;;;;;5045620;28;20033;-51
2021/10/12 00:13:33;;;;;;;18.92;15.55;;;10.60;99.90;;;;;;5049019;28;20027;-51
2021/10/12 00:15:59;;;;;;;19.05;14.73;;;10.60;99.90;;;;;;5048951;28;20044;-51
2021/10/12 00:18:25;;;;;;;14.80;11.10;;;10.50;99.90;;;;;;5047370;28;20033;-51
2021/10/12 00:20:51;;;;;;;14.48;11.80;;;10.40;99.90;;;;;;5046886;28;20392;-51
2021/10/12 00:23:17;;;;;;;17.65;13.57;;;10.30;99.90;;;;;;5038612;28;20017;-51
2021/10/12 00:25:43;;;;;;;21.50;16.02;;;10.30;99.90;;;;;;5048946;28;20025;-51
2021/10/12 00:28:08;;;;;;;17.55;12.23;;;10.40;99.90;;;;;;5050329;28;20056;-51
2021/10/12 00:30:34;;;;;;;20.17;14.63;;;10.30;99.90;;;;;;5048353;28;20555;-51
2021/10/12 00:33:00;;;;;;;20.02;14.68;;;10.40;99.90;;;;;;5043015;28;20044;-51
2021/10/12 00:35:26;;;;;;;16.95;13.23;;;10.20;99.90;;;;;;5052180;28;20029;-51
2021/10/12 00:37:52;;;;;;;17.02;12.70;;;10.30;99.90;;;;;;5050410;28;20028;-50
2021/10/12 00:40:18;;;;;;;17.98;14.23;;;10.30;99.90;;;;;;5044014;28;20021;-51
2021/10/12 00:42:43;;;;;;;16.20;13.75;;;10.20;99.90;;;;;;5049463;28;20030;-50
2021/10/12 00:45:12;;;;;;;22.38;14.77;;;10.20;99.90;;;;;;5049066;28;20036;-51
2021/10/12 00:47:38;;;;;;;21.58;15.65;;;10.10;99.90;;;;;;5046410;28;20045;-51
2021/10/12 00:50:06;;;;;;;25.30;18.17;;;10.20;99.90;;;;;;5033785;28;20485;-50
2021/10/12 00:52:31;;;;;;;17.40;13.48;;;10.30;99.90;;;;;;5026099;28;20042;-51
2021/10/12 00:54:57;;;;;;;26.35;18.15;;;10.20;99.90;;;;;;5052787;28;20179;-51
2021/10/12 00:57:24;;;;;;;22.05;17.17;;;10.30;99.90;;;;;;5047071;28;20021;-51
2021/10/12 00:59:50;;;;;;;23.48;15.90;;;10.40;99.90;;;;;;5045660;28;20056;-50
2021/10/12 01:02:15;;;;;;;27.67;18.80;;;10.30;99.90;;;;;;5046324;28;20485;-51
2021/10/12 01:04:42;;;;;;;24.33;18.65;;;10.40;99.90;;;;;;5043637;28;20167;-51
2021/10/12 01:07:07;;;;;;;21.15;13.68;;;10.40;99.90;;;;;;5052787;28;20033;-51
2021/10/12 01:09:33;;;;;;;24.80;18.02;;;10.30;99.90;;;;;;5010699;28;20044;-51
2021/10/12 01:11:59;;;;;;;25.83;18.65;;;10.30;99.90;;;;;;5048291;28;20032;-50
2021/10/12 01:14:26;;;;;;;24.20;17.58;;;10.30;99.90;;;;;;5046377;28;20033;-51
2021/10/12 01:16:52;;;;;;;24.52;18.05;;;10.40;99.90;;;;;;5045422;28;20033;-51
2021/10/12 01:19:18;;;;;;;20.80;15.40;;;10.30;99.90;;;;;;5049510;28;20108;-51
2021/10/12 01:21:49;;;;;;;20.33;15.48;;;10.20;99.90;;;;;;5052111;28;20063;-50
2021/10/12 01:24:16;;;;;;;23.02;15.10;;;10.20;99.90;;;;;;5049426;28;20051;-51
2021/10/12 01:26:43;;;;;;;24.00;17.98;;;10.20;99.90;;;;;;5048708;28;20040;-51
2021/10/12 01:29:11;;;;;;;24.92;18.38;;;10.20;99.90;;;;;;5048359;28;20492;-51
2021/10/12 01:31:37;;;;;;;25.48;20.10;;;10.30;99.90;;;;;;5043624;28;20029;-51
2021/10/12 01:34:15;;;;;;;21.98;16.83;;;10.30;99.90;;;;;;5048624;28;20043;-51
2021/10/12 01:36:41;;;;;;;23.27;17.30;;;10.30;99.90;;;;;;5029744;28;20132;-51
2021/10/12 01:39:07;;;;;;;19.75;14.63;;;10.30;99.90;;;;;;5015943;28;20030;-50
2021/10/12 01:41:33;;;;;;;20.10;15.05;;;10.30;99.90;;;;;;5033038;28;20447;-51
2021/10/12 01:43:59;;;;;;;24.95;17.92;;;10.20;99.90;;;;;;5031822;28;20037;-51
2021/10/12 01:46:24;;;;;;;17.55;12.80;;;10.30;99.90;;;;;;5032373;28;20045;-51
2021/10/12 01:48:50;;;;;;;20.63;16.88;;;10.20;99.90;;;;;;5032857;28;20083;-51
2021/10/12 01:51:16;;;;;;;21.40;16.95;;;10.30;99.90;;;;;;5015760;28;20544;-51
2021/10/12 01:53:42;;;;;;;17.38;13.27;;;10.30;99.90;;;;;;5032973;28;20378;-51
2021/10/12 01:56:07;;;;;;;21.08;16.83;;;10.30;99.90;;;;;;5031419;28;20052;-51
2021/10/12 01:58:35;;;;;;;19.83;15.25;;;10.30;99.90;;;;;;5031629;28;20034;-51
2021/10/12 02:01:01;;;;;;;19.95;15.23;;;10.30;99.90;;;;;;5032595;28;20060;-51
2021/10/12 02:03:27;;;;;;;23.95;16.52;;;10.20;99.90;;;;;;5032358;28;20084;-51
2021/10/12 02:05:53;;;;;;;17.90;13.75;;;10.20;99.90;;;;;;5018305;28;20124;-51
2021/10/12 02:08:19;;;;;;;20.13;15.60;;;10.20;99.90;;;;;;5032704;28;20025;-50
2021/10/12 02:10:45;;;;;;;10.48;6.10;;;10.30;99.90;;;;;;5046321;28;20029;-51
2021/10/12 02:13:10;;;;;;;21.25;15.10;;;10.30;99.90;;;;;;5003718;28;20044;-51
2021/10/12 02:15:36;;;;;;;18.88;13.88;;;10.40;99.90;;;;;;5014606;28;20045;-51
2021/10/12 02:18:02;;;;;;;19.35;15.43;;;10.40;99.90;;;;;;5047442;28;20025;-51
2021/10/12 02:20:28;;;;;;;17.58;13.57;;;10.40;99.90;;;;;;5050326;28;20115;-50
2021/10/12 02:22:53;;;;;;;19.80;14.68;;;10.30;99.90;;;;;;5018617;28;20052;-51
2021/10/12 02:25:19;;;;;;;18.75;14.02;;;10.30;99.90;;;;;;5033083;28;20041;-51
2021/10/12 02:27:45;;;;;;;13.07;9.63;;;10.40;99.90;;;;;;5047348;28;20037;-51
2021/10/12 02:30:13;;;;;;;19.98;13.50;;;10.30;99.90;;;;;;5035063;28;20044;-50
2021/10/12 02:32:39;;;;;;;21.40;15.48;;;10.30;99.90;;;;;;5045334;28;20037;-50
2021/10/12 02:35:06;;;;;;;21.48;15.60;;;10.40;99.90;;;;;;5021388;28;20044;-51
2021/10/12 02:37:32;;;;;;;21.27;16.23;;;10.40;99.90;;;;;;5029144;28;20037;-51
2021/10/12 02:39:57;;;;;;;21.48;16.70;;;10.30;99.90;;;;;;5046425;28;20392;-51
2021/10/12 02:42:23;;;;;;;22.50;16.60;;;10.40;99.90;;;;;;5046053;28;20037;-51
2021/10/12 02:44:49;;;;;;;19.60;15.00;;;10.40;99.90;;;;;;5045298;28;20096;-51
2021/10/12 02:47:15;;;;;;;24.52;17.15;;;10.50;99.90;;;;;;5049713;28;20064;-50
2021/10/12 02:49:41;;;;;;;23.15;16.45;;;10.40;99.90;;;;;;5029348;28;20041;-50
2021/10/12 02:52:06;;;;;;;23.42;16.95;;;10.40;99.90;;;;;;5046854;28;20090;-50
2021/10/12 02:54:32;;;;;;;24.67;18.50;;;10.50;99.90;;;;;;5042945;28;20048;-51
2021/10/12 02:56:58;;;;;;;21.85;16.58;;;10.60;99.90;;;;;;5045303;28;20468;-51
2021/10/12 02:59:24;;;;;;;21.70;15.77;;;10.50;99.90;;;;;;5008139;28;20059;-51
2021/10/12 03:01:50;;;;;;;24.42;18.23;;;10.50;99.90;;;;;;5051071;28;20029;-51
2021/10/12 03:04:15;;;;;;;23.60;17.58;;;10.60;99.90;;;;;;5048800;28;20020;-50
2021/10/12 03:06:41;;;;;;;25.33;18.40;;;10.60;99.90;;;;;;5011859;28;20057;-51
2021/10/12 03:09:07;;;;;;;25.25;18.25;;;10.60;99.90;;;;;;5043790;28;20507;-50
2021/10/12 03:11:33;;;;;;;23.98;18.15;;;10.60;99.90;;;;;;5012550;28;20038;-50
2021/10/12 03:13:59;;;;;;;28.02;15.88;;;10.60;99.90;;;;;;5016198;28;20058;-50
2021/10/12 03:16:25;;;;;;;24.45;16.40;;;10.60;99.90;;;;;;5028320;28;20036;-51
2021/10/12 03:18:51;;;;;;;25.92;18.83;;;10.60;99.90;;;;;;5011988;28;20090;-51
2021/10/12 03:21:18;;;;;;;27.75;19.52;;;10.60;99.90;;;;;;5042284;28;20030;-51
2021/10/12 03:23:44;;;;;;;24.80;18.35;;;10.60;99.90;;;;;;5035069;28;20091;-51
2021/10/12 03:26:09;;;;;;;26.98;19.45;;;10.50;99.90;;;;;;5028416;28;20045;-51
2021/10/12 03:28:35;;;;;;;27.40;19.85;;;10.50;99.90;;;;;;5042288;28;20033;-51
2021/10/12 03:31:01;;;;;;;25.77;19.38;;;10.60;99.90;;;;;;5044149;28;20040;-50
2021/10/12 03:33:27;;;;;;;23.27;17.98;;;10.50;99.90;;;;;;5047327;28;20043;-50
2021/10/12 03:35:57;;;;;;;27.10;20.70;;;10.60;99.90;;;;;;5014919;28;20037;-52
2021/10/12 03:38:25;;;;;;;27.83;20.10;;;10.60;99.90;;;;;;5025728;28;20042;-50
2021/10/12 03:40:52;;;;;;;27.75;19.60;;;10.60;99.90;;;;;;5047732;28;20033;-51
2021/10/12 03:43:18;;;;;;;26.70;19.55;;;10.60;99.90;;;;;;5047030;28;20356;-50
2021/10/12 03:45:45;;;;;;;27.40;19.02;;;10.70;99.90;;;;;;5028134;28;20489;-51
2021/10/12 03:48:10;;;;;;;23.80;17.98;;;10.70;99.90;;;;;;5049684;28;20036;-51
2021/10/12 03:50:36;;;;;;;27.60;18.92;;;10.70;99.90;;;;;;4993686;28;20033;-50
2021/10/12 03:53:02;;;;;;;23.77;18.25;;;10.70;99.90;;;;;;4977026;28;20386;-50
2021/10/12 03:55:28;;;;;;;22.40;17.63;;;10.70;99.90;;;;;;5003796;28;20051;-51
2021/10/12 03:57:54;;;;;;;24.25;17.77;;;10.70;99.90;;;;;;4993752;28;20038;-51
2021/10/12 04:00:20;;;;;;;26.42;18.73;;;10.60;99.90;;;;;;5001181;28;20038;-51
2021/10/12 04:02:45;;;;;;;23.65;18.63;;;10.70;99.90;;;;;;4970462;28;20398;-51
2021/10/12 04:05:11;;;;;;;26.38;18.60;;;10.50;99.90;;;;;;5006254;28;20425;-52
2021/10/12 04:07:37;;;;;;;27.75;18.30;;;10.60;99.90;;;;;;5003009;28;20117;-51
2021/10/12 04:10:05;;;;;;;26.02;19.33;;;10.40;99.90;;;;;;4991855;28;20169;-51
2021/10/12 04:12:31;;;;;;;27.33;19.00;;;10.40;99.90;;;;;;4977586;28;20125;-51
2021/10/12 04:14:57;;;;;;;26.30;19.73;;;10.40;99.90;;;;;;5000618;28;20105;-51
2021/10/12 04:17:22;;;;;;;25.42;19.48;;;10.40;99.90;;;;;;5003869;28;20029;-50
2021/10/12 04:19:48;;;;;;;22.02;16.75;;;10.40;99.90;;;;;;5004447;28;20688;-51
2021/10/12 04:22:14;;;;;;;22.58;17.65;;;10.30;99.90;;;;;;5037625;28;20129;-51
2021/10/12 04:24:40;;;;;;;25.10;19.20;;;10.30;99.90;;;;;;5048190;28;20083;-51
2021/10/12 04:27:06;;;;;;;19.50;13.48;;;10.30;99.90;;;;;;5044835;28;20076;-51
2021/10/12 04:29:32;;;;;;;23.52;17.27;;;10.10;99.90;;;;;;5041353;28;20057;-51
2021/10/12 04:32:00;;;;;;;19.27;14.23;;;10.20;99.90;;;;;;5046543;28;20029;-51
2021/10/12 04:34:27;;;;;;;24.60;19.25;;;10.20;99.90;;;;;;5038072;28;20048;-51
2021/10/12 04:36:57;;;;;;;23.88;19.02;;;10.20;99.90;;;;;;5043479;28;20068;-51
2021/10/12 04:39:23;;;;;;;23.25;16.67;;;10.20;99.90;;;;;;5044412;28;20056;-51
2021/10/12 04:41:49;;;;;;;28.58;21.75;;;10.20;99.90;;;;;;5044156;28;20029;-51
2021/10/12 04:44:15;;;;;;;28.75;21.38;;;10.20;99.90;;;;;;5031008;28;20490;-51
2021/10/12 04:46:41;;;;;;;23.48;17.50;;;10.20;99.90;;;;;;5042925;28;20358;-51
2021/10/12 04:49:07;;;;;;;25.50;19.45;;;10.20;99.90;;;;;;5023587;28;20068;-51
2021/10/12 04:51:34;;;;;;;27.55;20.92;;;10.10;99.90;;;;;;5028696;28;20123;-51
2021/10/12 04:54:00;;;;;;;24.00;15.95;;;10.20;99.90;;;;;;5046538;28;20053;-50
2021/10/12 04:56:26;;;;;;;28.50;18.60;;;10.20;99.90;;;;;;5029934;28;20505;-51
2021/10/12 04:58:51;;;;;;;25.60;19.25;;;10.20;99.90;;;;;;5032757;28;20543;-51
2021/10/12 05:01:17;;;;;;;28.08;19.88;;;10.20;99.90;;;;;;5027318;28;20041;-52
2021/10/12 05:03:43;;;;;;;25.67;18.02;;;10.30;99.90;;;;;;5026897;28;20437;-51
2021/10/12 05:06:09;;;;;;;27.58;18.77;;;10.30;99.90;;;;;;5045019;28;20132;-51
2021/10/12 05:08:34;;;;;;;31.05;21.02;;;10.20;99.90;;;;;;5047451;28;20033;-50
2021/10/12 05:11:00;;;;;;;27.73;20.77;;;10.30;99.90;;;;;;5047190;28;20492;-50
2021/10/12 05:13:27;;;;;;;30.13;20.08;;;10.40;99.90;;;;;;5045273;28;20033;-50
2021/10/12 05:15:53;;;;;;;27.90;20.80;;;10.40;99.90;;;;;;5034620;28;20045;-50
2021/10/12 05:18:24;;;;;;;27.55;20.98;;;10.40;99.90;;;;;;5027322;28;20041;-50
2021/10/12 05:20:50;;;;;;;23.92;19.73;;;10.50;99.90;;;;;;5050885;28;20032;-51
2021/10/12 05:23:16;;;;;;;27.35;19.65;;;10.50;99.90;;;;;;5045355;28;20535;-50
2021/10/12 05:25:46;;;;;;;28.55;20.65;;;10.50;99.90;;;;;;5035980;28;20087;-51
2021/10/12 05:28:12;;;;;;;26.65;19.58;;;10.50;99.90;;;;;;5020315;28;20036;-51
2021/10/12 05:30:40;;;;;;;25.83;20.70;;;10.60;99.90;;;;;;5049210;28;20446;-51
2021/10/12 05:33:07;;;;;;;28.42;20.48;;;10.60;99.90;;;;;;5017132;28;20405;-51
2021/10/12 05:35:34;;;;;;;28.20;20.88;;;10.60;99.90;;;;;;5042785;28;20063;-52
2021/10/12 05:37:59;;;;;;;26.23;19.67;;;10.50;99.90;;;;;;5048984;28;20365;-51
2021/10/12 05:40:25;;;;;;;26.75;19.83;;;10.50;99.90;;;;;;5049077;28;20034;-50
2021/10/12 05:42:51;;;;;;;29.27;21.20;;;10.60;99.90;;;;;;5048746;28;20036;-51
2021/10/12 05:45:16;;;;;;;29.15;20.83;;;10.60;99.90;;;;;;5047866;28;20029;-51
2021/10/12 05:47:42;;;;;;;27.67;20.55;;;10.50;99.90;;;;;;5010515;28;20041;-51
2021/10/12 05:50:08;;;;;;;29.88;20.08;;;10.50;99.90;;;;;;5050941;28;20630;-51
2021/10/12 05:52:37;;;;;;;27.90;20.85;;;10.60;99.90;;;;;;5030120;28;20048;-51
2021/10/12 05:57:42;;;;;;;32.60;21.20;;;10.60;99.90;;;;;;5013303;28;20061;-51
2021/10/12 06:00:08;;;;;;;26.77;20.50;;;10.60;99.90;;;;;;5050941;28;20041;-51
2021/10/12 06:02:34;;;;;;;28.55;21.58;;;10.60;99.90;;;;;;5049309;28;20033;-51
2021/10/12 06:04:59;;;;;;;29.25;20.27;;;10.60;99.90;;;;;;5050517;28;20036;-51
2021/10/12 06:07:25;;;;;;;26.13;17.50;;;10.60;99.90;;;;;;5047871;28;20071;-51
2021/10/12 06:09:51;;;;;;;34.42;23.27;;;10.50;99.90;;;;;;5049438;28;20029;-51
2021/10/12 06:12:17;;;;;;;30.48;23.35;;;10.50;99.90;;;;;;5049862;28;20029;-51
2021/10/12 06:14:43;;;;;;;29.38;21.80;;;10.60;99.90;;;;;;5046659;28;20037;-51
2021/10/12 06:17:10;;;;;;;30.45;23.48;;;10.50;99.90;;;;;;5028288;28;20072;-51
2021/10/12 06:19:36;;;;;;;33.72;24.85;;;10.60;99.90;;;;;;5048579;28;20033;-51
2021/10/12 06:22:01;;;;;;;35.45;23.00;;;10.60;99.90;;;;;;5046983;28;20381;-49
2021/10/12 06:24:27;;;;;;;40.42;27.45;;;10.50;99.90;;;;;;5046223;28;20032;-49
2021/10/12 06:26:53;;;;;;;34.13;23.35;;;10.60;99.90;;;;;;5042466;28;20033;-49
2021/10/12 06:29:19;;;;;;;34.55;22.27;;;10.60;99.90;;;;;;5051658;28;20090;-51
2021/10/12 06:31:44;;;;;;;29.17;21.98;;;10.60;99.90;;;;;;4998825;28;20094;-51
2021/10/12 06:34:10;;;;;;;29.38;21.55;;;10.60;99.90;;;;;;5049813;28;20090;-50
2021/10/12 06:36:39;;;;;;;30.08;21.10;;;10.60;99.90;;;;;;5024616;28;20042;-50
2021/10/12 06:39:04;;;;;;;24.52;20.40;;;10.60;99.90;;;;;;5045642;28;20028;-49
2021/10/12 06:41:30;;;;;;;27.15;20.60;;;10.50;99.90;;;;;;5023172;28;20048;-47
2021/10/12 06:43:56;;;;;;;30.45;21.30;;;10.50;99.90;;;;;;5041123;28;20040;-50
2021/10/12 06:46:22;;;;;;;28.92;20.52;;;10.60;99.90;;;;;;5050459;28;20051;-50
2021/10/12 06:48:47;;;;;;;33.03;22.92;;;10.60;99.90;;;;;;5048697;28;20116;-50
2021/10/12 06:51:13;;;;;;;28.38;20.95;;;10.70;99.90;;;;;;5028426;28;20763;-50
2021/10/12 06:53:42;;;;;;;24.95;19.98;;;10.70;99.90;;;;;;5025204;28;20135;-49
2021/10/12 06:56:09;;;;;;;26.05;19.85;;;10.80;99.90;;;;;;4985479;28;20088;-48
2021/10/12 06:58:35;;;;;;;30.55;21.35;;;10.80;99.90;;;;;;4997352;28;20038;-50
2021/10/12 07:01:00;;;;;;;28.70;21.50;;;10.80;99.90;;;;;;5013501;28;20064;-48
2021/10/12 07:03:26;;;;;;;27.50;21.70;;;10.90;99.90;;;;;;5001898;28;20038;-49
2021/10/12 07:05:52;;;;;;;32.70;22.38;;;10.80;99.90;;;;;;4997156;28;20041;-50
2021/10/12 07:08:18;;;;;;;27.25;20.35;;;10.80;99.90;;;;;;5023710;28;20072;-51
2021/10/12 07:10:43;;;;;;;26.42;20.35;;;10.80;99.90;;;;;;4951722;28;20050;-49
2021/10/12 07:13:12;;;;;;;29.48;22.02;;;10.80;99.90;;;;;;5031626;28;20108;-50
2021/10/12 07:15:37;;;;;;;26.75;21.40;;;10.90;99.90;;;;;;5023960;28;20034;-50
2021/10/12 07:18:03;;;;;;;28.10;22.50;;;10.90;99.90;;;;;;5012716;28;20551;-49
2021/10/12 07:20:29;;;;;;;27.58;21.55;;;10.90;99.90;;;;;;5026933;28;20063;-48
2021/10/12 07:22:55;;;;;;;30.35;22.10;;;10.80;99.90;;;;;;5031550;28;20559;-49
2021/10/12 07:25:20;;;;;;;32.75;21.38;;;10.90;99.90;;;;;;4998548;28;20049;-48
2021/10/12 07:27:46;;;;;;;29.17;22.70;;;10.90;99.90;;;;;;5020902;28;20124;-51
2021/10/12 07:30:12;;;;;;;28.38;22.27;;;11.00;99.90;;;;;;5023668;28;20060;-50
2021/10/12 07:32:38;;;;;;;28.02;19.80;;;10.90;99.90;;;;;;4998091;28;20052;-50
2021/10/12 07:35:05;;;;;;;26.40;19.60;;;11.00;99.90;;;;;;5010622;28;20033;-49
2021/10/12 07:37:33;;;;;;;26.52;19.30;;;11.00;99.90;;;;;;5000008;28;20045;-50
2021/10/12 07:39:58;;;;;;;25.13;20.05;;;10.90;99.90;;;;;;4997558;28;20053;-50
2021/10/12 07:42:24;;;;;;;23.55;20.95;;;10.90;99.90;;;;;;5026499;28;20026;-51
2021/10/12 07:44:50;;;;;;;26.85;20.60;;;10.90;99.90;;;;;;4993702;28;20037;-50
2021/10/12 07:47:16;;;;;;;25.48;18.92;;;10.90;99.90;;;;;;5024811;28;20034;-52
2021/10/12 07:49:42;;;;;;;26.77;20.70;;;10.80;99.90;;;;;;5024702;28;20038;-54
2021/10/12 07:52:07;;;;;;;26.05;19.88;;;11.00;99.90;;;;;;5026235;28;20460;-50
2021/10/12 07:54:44;;;;;;;27.08;19.15;;;11.00;99.90;;;;;;5024450;28;20052;-49
2021/10/12 07:57:10;;;;;;;27.15;20.98;;;11.00;99.90;;;;;;5024309;28;20085;-51
2021/10/12 07:59:36;;;;;;;23.70;18.95;;;11.10;99.90;;;;;;5029771;28;20473;-51
2021/10/12 08:02:02;;;;;;;21.80;16.05;;;10.90;99.90;;;;;;5020032;28;20128;-51
2021/10/12 08:04:28;;;;;;;29.00;22.88;;;10.80;99.90;;;;;;4997871;28;20077;-51
2021/10/12 08:06:53;;;;;;;23.55;17.70;;;10.90;99.90;;;;;;5026213;28;20033;-51
2021/10/12 08:09:19;;;;;;;23.02;18.67;;;11.00;99.90;;;;;;5024857;28;20037;-51
2021/10/12 08:11:45;;;;;;;22.70;17.88;;;10.90;99.90;;;;;;5022999;28;20504;-51
2021/10/12 08:14:12;;;;;;;21.00;15.18;;;10.90;99.90;;;;;;5013766;28;20068;-51
2021/10/12 08:16:42;;;;;;;24.05;18.40;;;11.00;99.90;;;;;;4973682;28;20045;-51
2021/10/12 08:19:07;;;;;;;23.70;16.55;;;11.00;99.90;;;;;;5030864;28;20464;-51
2021/10/12 08:21:33;;;;;;;24.23;18.88;;;11.00;99.90;;;;;;5028380;28;20104;-51
2021/10/12 08:24:01;;;;;;;22.33;16.02;;;11.10;99.90;;;;;;5016203;28;20099;-51
2021/10/12 08:26:28;;;;;;;24.33;18.85;;;11.20;99.90;;;;;;5007588;28;20132;-51
2021/10/12 08:28:55;;;;;;;25.98;20.00;;;11.30;99.90;;;;;;5025380;28;20064;-51
2021/10/12 08:31:21;;;;;;;21.65;14.68;;;11.30;99.90;;;;;;5010157;28;20038;-51
2021/10/12 08:33:48;;;;;;;22.52;17.75;;;11.40;99.90;;;;;;5008017;28;20038;-51
2021/10/12 08:36:14;;;;;;;15.23;10.13;;;11.40;99.90;;;;;;5012070;28;20442;-51
2021/10/12 08:38:44;;;;;;;23.13;18.27;;;11.20;99.90;;;;;;4980363;28;20516;-51
2021/10/12 08:41:12;;;;;;;22.73;18.50;;;11.20;99.90;;;;;;4989136;28;20034;-51
2021/10/12 08:43:39;;;;;;;22.60;18.95;;;11.40;99.90;;;;;;4991210;28;20081;-51
2021/10/12 08:46:05;;;;;;;23.30;15.70;;;11.30;99.90;;;;;;4990023;28;20038;-51
2021/10/12 08:48:35;;;;;;;21.00;11.57;;;11.30;99.90;;;;;;4975297;28;20044;-51
2021/10/12 08:51:06;;;;;;;23.27;18.00;;;11.20;99.90;;;;;;4975558;28;20126;-51
2021/10/12 08:53:33;;;;;;;24.52;18.00;;;11.30;99.90;;;;;;4979597;28;20490;-51
2021/10/12 08:56:00;;;;;;;28.00;18.27;;;11.50;99.90;;;;;;4993697;28;20034;-52
2021/10/12 08:58:26;;;;;;;23.23;17.75;;;11.60;99.90;;;;;;4992639;28;20034;-51
2021/10/12 09:01:06;;;;;;;21.38;16.27;;;11.60;99.90;;;;;;4992129;28;20034;-51
2021/10/12 09:06:31;;;;;;;22.23;16.70;;;11.80;99.90;;;;;;4994953;28;20085;-51
2021/10/12 09:08:58;;;;;;;18.92;13.82;;;11.90;99.90;;;;;;4993577;28;20078;-51
2021/10/12 09:11:27;;;;;;;22.17;16.13;;;12.00;99.90;;;;;;4943041;28;20026;-51
2021/10/12 09:14:11;;;;;;;21.17;17.38;;;12.00;99.90;;;;;;5004265;28;20038;-51
2021/10/12 09:16:43;;;;;;;22.38;17.23;;;12.20;99.90;;;;;;5007124;28;20149;-51
2021/10/12 09:19:12;;;;;;;31.10;18.25;;;12.30;99.90;;;;;;5015214;28;20033;-51
2021/10/12 09:21:40;;;;;;;20.98;16.15;;;12.50;99.90;;;;;;5034018;28;20041;-51
2021/10/12 09:24:13;;;;;;;18.38;13.93;;;12.60;99.90;;;;;;5032351;28;20036;-51
2021/10/12 09:26:40;;;;;;;22.23;17.67;;;12.70;99.90;;;;;;5033395;28;20480;-51
2021/10/12 09:29:24;;;;;;;24.30;18.75;;;12.70;99.90;;;;;;5034786;28;20040;-52
2021/10/12 09:31:53;;;;;;;24.05;14.70;;;12.90;99.90;;;;;;5029555;28;20025;-51
2021/10/12 09:34:19;;;;;;;23.85;18.15;;;13.00;99.90;;;;;;5033327;28;20041;-51
2021/10/12 09:36:50;;;;;;;23.33;16.52;;;13.20;99.90;;;;;;5013253;28;20045;-51
2021/10/12 09:39:18;;;;;;;24.95;17.38;;;13.10;99.90;;;;;;5034049;28;20512;-51
2021/10/12 09:41:45;;;;;;;19.48;13.82;;;13.20;99.90;;;;;;5034477;28;20025;-51
2021/10/12 09:44:16;;;;;;;20.77;15.50;;;13.10;99.90;;;;;;4998782;28;20033;-51
2021/10/12 09:46:48;;;;;;;22.90;17.27;;;12.90;99.90;;;;;;5033301;28;20037;-51
2021/10/12 09:49:20;;;;;;;;;;;13.10;99.90;;;;;;5027887;28;20041;-51
2021/10/12 09:51:57;;;;;;;22.80;16.17;;;12.80;99.90;;;;;;5033786;28;20059;-52
2021/10/12 09:54:25;;;;;;;25.70;18.17;;;12.70;99.90;;;;;;5036706;28;20057;-50
2021/10/12 09:56:51;;;;;;;21.85;17.15;;;12.60;99.90;;;;;;5043171;28;20376;-51
2021/10/12 09:59:17;;;;;;;23.27;18.73;;;12.50;99.90;;;;;;5044875;28;20082;-50
2021/10/12 10:01:46;;;;;;;23.95;18.42;;;12.60;99.90;;;;;;5009353;28;20116;-50
2021/10/12 10:04:18;;;;;;;27.90;20.05;;;12.70;99.90;;;;;;4935046;29;20048;-52
2021/10/12 10:06:46;;;;;;;19.25;14.65;;;13.00;99.90;;;;;;4944771;28;20039;-51
2021/10/12 10:09:13;;;;;;;22.52;17.75;;;12.90;99.90;;;;;;4942327;28;20576;-51
2021/10/12 10:11:39;;;;;;;16.00;9.88;;;12.90;99.90;;;;;;4965943;28;20043;-50
2021/10/12 10:14:06;;;;;;;33.70;23.55;;;12.50;99.90;;;;;;4938505;29;20043;-51
2021/10/12 10:16:33;;;;;;;27.23;20.30;;;12.80;99.90;;;;;;4925633;29;20058;-51
2021/10/12 10:18:59;;;;;;;36.30;23.38;;;12.90;99.90;;;;;;4942354;29;20040;-51
2021/10/12 10:21:26;;;;;;;25.52;17.02;;;13.00;99.90;;;;;;4941365;28;20156;-51
2021/10/12 10:24:11;;;;;;;31.20;18.17;;;13.30;99.90;;;;;;4940160;28;20034;-50
2021/10/12 10:26:39;;;;;;;23.23;11.05;;;13.30;99.90;;;;;;4941198;29;20055;-51
2021/10/12 10:29:29;;;;;;;20.20;16.13;;;13.00;99.90;;;;;;4942031;29;20373;-51
2021/10/12 10:32:00;;;;;;;35.33;21.42;;;12.90;99.90;;;;;;4941219;29;20562;-51
2021/10/12 10:34:30;;;;;;;30.67;22.50;;;12.70;99.90;;;;;;4953889;28;20173;-48
2021/10/12 10:37:17;;;;;;;19.90;14.15;;;13.00;99.90;;;;;;4972610;28;20037;-49
2021/10/12 10:39:44;;;;;;;20.50;16.65;;;12.90;99.90;;;;;;4986154;28;20046;-49
2021/10/12 10:42:44;;;;;;;19.83;11.93;;;13.10;99.90;;;;;;4957584;28;20050;-50
2021/10/12 10:45:11;;;;;;;21.67;16.50;;;13.00;99.90;;;;;;4989693;28;20076;-48
2021/10/12 10:47:47;;;;;;;22.42;17.75;;;13.10;99.90;;;;;;4991102;28;20043;-50
2021/10/12 10:50:17;;;;;;;15.32;10.60;;;13.50;99.90;;;;;;4991001;28;20033;-49
2021/10/12 10:52:45;;;;;;;21.25;15.80;;;13.40;99.90;;;;;;4991981;28;20033;-48
2021/10/12 10:55:18;;;;;;;20.42;14.73;;;13.60;99.90;;;;;;5009660;28;20077;-48
2021/10/12 10:58:03;;;;;;;22.33;17.05;;;13.60;99.90;;;;;;5011249;28;20076;-48
2021/10/12 11:00:35;;;;;;;25.95;17.92;;;14.10;99.90;;;;;;5010301;28;20030;-49
2021/10/12 11:03:01;;;;;;;22.50;16.13;;;14.00;99.90;;;;;;5009918;28;20038;-49
2021/10/12 11:05:46;;;;;;;18.85;13.15;;;14.20;99.90;;;;;;5009655;28;20042;-48
2021/10/12 11:08:39;;;;;;;30.65;18.65;;;14.10;99.90;;;;;;5028896;28;20079;-49
2021/10/12 11:11:09;;;;;;;25.77;17.73;;;14.00;99.90;;;;;;4979001;28;20270;-49
2021/10/12 11:13:40;;;;;;;23.30;17.50;;;13.90;99.90;;;;;;4977722;28;20090;-45
2021/10/12 11:16:10;;;;;;;21.52;16.45;;;13.70;99.90;;;;;;4973413;28;20098;-46
2021/10/12 11:18:38;;;;;;;22.58;14.13;;;13.60;99.90;;;;;;4972908;28;20035;-51
2021/10/12 11:21:15;;;;;;;22.80;16.95;;;13.40;99.90;;;;;;4943201;28;20458;-51
2021/10/12 11:23:54;;;;;;;22.08;15.77;;;13.30;99.90;;;;;;4944181;28;20050;-52
2021/10/12 11:26:30;;;;;;;23.88;18.55;;;13.50;99.90;;;;;;4952390;28;20031;-52
2021/10/12 11:29:17;;;;;;;21.00;15.90;;;13.50;99.90;;;;;;4965686;28;20051;-53
2021/10/12 11:31:43;;;;;;;20.38;15.40;;;13.50;99.90;;;;;;4931385;29;20480;-52
2021/10/12 11:34:09;;;;;;;20.55;15.02;;;13.70;99.90;;;;;;4934184;29;20082;-48
2021/10/12 11:36:34;;;;;;;23.45;17.92;;;13.80;99.90;;;;;;4931176;29;20038;-49
2021/10/12 11:39:05;;;;;;;30.23;21.55;;;14.00;99.90;;;;;;4900981;29;20463;-49
2021/10/12 11:41:32;;;;;;;25.52;15.68;;;14.00;99.90;;;;;;4933370;29;20098;-48
2021/10/12 11:43:59;;;;;;;24.80;19.70;;;13.90;99.90;;;;;;4932802;29;20512;-58
2021/10/12 11:46:32;;;;;;;28.35;19.95;;;14.00;99.90;;;;;;4932226;29;20344;-50
2021/10/12 11:49:11;;;;;;;29.88;20.70;;;14.00;99.90;;;;;;4980948;28;20038;-50
2021/10/12 11:51:38;;;;;;;25.48;18.13;;;13.70;99.90;;;;;;4953321;28;20038;-49
2021/10/12 11:54:04;;;;;;;28.65;17.63;;;13.60;99.90;;;;;;4989210;28;21850;-48
2021/10/12 11:56:36;;;;;;;22.38;15.60;;;13.70;99.90;;;;;;4987923;28;20125;-50
2021/10/12 11:59:03;;;;;;;23.10;17.38;;;13.60;99.90;;;;;;4989387;28;20431;-48
2021/10/12 12:01:35;;;;;;;45.75;27.38;;;13.50;99.90;;;;;;4972258;28;20505;-50
2021/10/12 12:04:02;;;;;;;150.00;61.90;;;13.50;99.90;;;;;;5004181;28;20026;-48
2021/10/12 12:06:33;;;;;;;114.63;45.50;;;13.60;99.90;;;;;;5028275;28;20400;-49
2021/10/12 12:09:20;;;;;;;77.70;37.40;;;13.60;99.90;;;;;;5012127;28;20048;-51
2021/10/12 12:11:46;;;;;;;34.72;23.92;;;13.60;99.90;;;;;;5025910;28;20635;-48
2021/10/12 12:14:12;;;;;;;28.08;21.23;;;13.50;99.90;;;;;;5023977;28;20022;-50
2021/10/12 12:16:38;;;;;;;32.85;19.45;;;13.50;99.90;;;;;;5027094;28;20064;-51
2021/10/12 12:19:22;;;;;;;20.60;15.38;;;13.40;99.90;;;;;;5024474;28;20029;-54
2021/10/12 12:21:48;;;;;;;21.83;14.10;;;13.40;99.90;;;;;;5020258;28;20034;-49
2021/10/12 12:24:19;;;;;;;25.10;19.02;;;13.20;99.90;;;;;;5027544;28;20028;-50
2021/10/12 12:26:45;;;;;;;24.63;18.98;;;13.30;99.90;;;;;;5024340;28;20041;-50
2021/10/12 12:29:15;;;;;;;29.67;18.45;;;13.40;99.90;;;;;;5007855;28;20060;-48
2021/10/12 12:31:52;;;;;;;24.65;16.98;;;13.30;99.90;;;;;;5027201;28;20030;-49
2021/10/12 12:34:30;;;;;;;23.83;16.52;;;13.20;99.90;;;;;;5024545;28;20029;-49
2021/10/12 12:36:57;;;;;;;24.08;15.18;;;13.10;99.90;;;;;;5024941;28;20503;-50